Time;durP1;ratioP1;P1;durP2;ratioP2;P2;SDS_P1;SDS_P2;PMS_P1;PMS_P2;Temp;Humidity;BMP_temperature;BMP_pressure;BME280_temperature;BME280_humidity;BME280_pressure;Samples;Min_cycle;Max_cycle;Signal;HPM_P1;HPM_P2
2022/09/16 00:00:53;;;;;;;2.42;0.82;;;15.20;99.90;;;15.33;100.00;100487.97;5186849;28;20080;-73
2022/09/16 00:03:26;;;;;;;1.92;0.73;;;15.20;99.90;;;15.29;100.00;100497.53;5186696;28;20065;-73
2022/09/16 00:05:58;;;;;;;2.80;0.90;;;15.10;99.90;;;15.28;100.00;100485.28;5186154;28;20537;-71
2022/09/16 00:08:32;;;;;;;0.80;0.75;;;15.10;99.90;;;15.30;100.00;100480.03;5186498;28;20056;-71
2022/09/16 00:11:04;;;;;;;2.35;0.80;;;15.10;99.90;;;15.29;100.00;100481.78;5185283;28;20046;-71
2022/09/16 00:13:37;;;;;;;3.00;0.73;;;15.10;99.90;;;15.27;100.00;100483.53;5185094;28;20129;-71
2022/09/16 00:16:13;;;;;;;2.20;0.75;;;15.10;99.90;;;15.25;100.00;100474.72;5186020;28;20049;-72
2022/09/16 00:18:46;;;;;;;1.67;0.80;;;15.10;99.90;;;15.25;100.00;100482.59;5184768;28;20054;-70
2022/09/16 00:21:18;;;;;;;2.58;0.77;;;15.10;99.90;;;15.26;100.00;100487.03;5185030;28;20073;-72
2022/09/16 00:23:52;;;;;;;0.73;0.63;;;15.10;99.90;;;15.28;100.00;100489.66;5186308;28;20046;-72
2022/09/16 00:26:25;;;;;;;1.98;0.90;;;15.10;99.90;;;15.25;100.00;100489.59;5186120;28;20502;-71
2022/09/16 00:28:58;;;;;;;1.75;0.88;;;15.10;99.90;;;15.22;100.00;100493.09;5186100;28;20045;-71
2022/09/16 00:31:30;;;;;;;4.90;0.90;;;15.10;99.90;;;15.19;100.00;100488.69;5186117;28;20042;-72
2022/09/16 00:34:05;;;;;;;3.42;0.80;;;15.00;99.90;;;15.13;100.00;100491.25;5184824;28;20077;-73
2022/09/16 00:36:37;;;;;;;1.25;0.63;;;15.00;99.90;;;15.14;100.00;100485.13;5185392;28;20052;-72
2022/09/16 00:39:10;;;;;;;0.90;0.65;;;15.00;99.90;;;15.14;100.00;100479.00;5184838;28;20046;-72
2022/09/16 00:41:43;;;;;;;2.28;0.70;;;15.00;99.90;;;15.15;100.00;100480.75;5185705;28;20558;-71
2022/09/16 00:44:56;;;;;;;2.95;0.70;;;15.00;99.90;;;15.13;100.00;100479.88;5186059;28;20045;-71
2022/09/16 00:47:35;;;;;;;3.20;0.80;;;15.00;99.90;;;15.11;100.00;100476.31;5182776;28;20124;-73
2022/09/16 00:50:14;;;;;;;2.53;0.73;;;14.90;99.90;;;15.09;100.00;100483.31;5184862;28;20419;-71
2022/09/16 00:52:47;;;;;;;2.03;0.80;;;14.90;99.90;;;15.08;100.00;100481.56;5185051;28;20046;-72
2022/09/16 00:55:26;;;;;;;0.73;0.52;;;14.90;99.90;;;15.08;100.00;100490.31;5183763;28;20054;-72
2022/09/16 00:58:06;;;;;;;2.83;0.77;;;14.90;99.90;;;15.08;100.00;100481.56;5184074;28;20050;-71
2022/09/16 01:00:39;;;;;;;1.63;0.68;;;14.90;99.90;;;15.08;100.00;100484.19;5185461;28;20447;-71
2022/09/16 01:03:11;;;;;;;1.55;0.70;;;14.90;99.90;;;15.08;100.00;100486.81;5185894;28;20048;-75
2022/09/16 01:05:45;;;;;;;0.32;0.32;;;14.90;99.90;;;15.08;100.00;100484.19;5185786;28;20408;-72
2022/09/16 01:08:17;;;;;;;0.73;0.63;;;14.90;99.90;;;15.08;100.00;100481.56;5185572;28;20045;-71
2022/09/16 01:10:50;;;;;;;1.92;0.70;;;14.90;99.90;;;15.07;100.00;100485.06;5185662;28;20050;-70
2022/09/16 01:13:23;;;;;;;2.53;1.33;;;14.90;99.90;;;15.05;100.00;100471.00;5185057;28;20501;-72
2022/09/16 01:16:05;;;;;;;1.58;0.70;;;14.90;99.90;;;15.04;100.00;100482.38;5185386;28;20557;-74
2022/09/16 01:18:46;;;;;;;1.33;0.73;;;14.80;99.90;;;15.00;100.00;100473.59;5185029;28;20140;-72
2022/09/16 01:21:32;;;;;;;1.48;0.80;;;14.80;99.90;;;14.98;100.00;100480.56;5184129;28;20073;-71
2022/09/16 01:24:49;;;;;;;0.60;0.60;;;14.80;99.90;;;14.95;100.00;100479.66;5183832;28;20149;-71
2022/09/16 01:27:54;;;;;;;1.23;0.63;;;14.80;99.90;;;14.89;100.00;100481.34;5184574;28;20103;-71
2022/09/16 01:30:58;;;;;;;1.75;0.80;;;14.70;99.90;;;14.87;100.00;100475.19;5168459;28;20058;-72
2022/09/16 01:33:44;;;;;;;1.02;0.93;;;14.70;99.90;;;14.85;100.00;100487.41;5184351;28;20050;-72
2022/09/16 01:36:36;;;;;;;0.75;0.47;;;14.70;99.90;;;14.83;100.00;100481.25;5184293;28;20048;-72
2022/09/16 01:39:22;;;;;;;2.58;0.68;;;14.70;99.90;;;14.85;100.00;100482.16;5183515;28;20046;-72
2022/09/16 01:42:08;;;;;;;1.02;0.60;;;14.70;99.90;;;14.88;100.00;100486.56;5185005;28;20056;-71
2022/09/16 01:44:53;;;;;;;1.98;0.63;;;14.70;99.90;;;14.88;100.00;100479.56;5184508;28;20517;-73
2022/09/16 01:47:37;;;;;;;1.10;0.80;;;14.70;99.90;;;14.87;100.00;100477.81;5290797;22;20050;-71
2022/09/16 01:50:18;;;;;;;1.45;0.75;;;14.70;99.90;;;14.84;100.00;100475.13;5180674;28;20406;-70
2022/09/16 01:53:01;;;;;;;1.25;0.70;;;14.70;99.90;;;14.86;100.00;100476.03;5192173;28;20049;-72
2022/09/16 01:55:38;;;;;;;1.42;0.70;;;14.70;99.90;;;14.86;100.00;100476.03;5184606;28;20049;-71
2022/09/16 01:58:18;;;;;;;1.55;0.90;;;14.70;99.90;;;14.86;100.00;100473.41;5184195;28;20073;-72
2022/09/16 02:00:56;;;;;;;1.77;0.63;;;14.70;99.90;;;14.88;100.00;100465.56;5184619;28;20510;-71
2022/09/16 02:03:34;;;;;;;1.83;0.80;;;14.70;99.90;;;14.88;100.00;100463.84;5184285;28;20447;-71
2022/09/16 02:06:11;;;;;;;1.13;0.80;;;14.70;99.90;;;14.91;100.00;100466.47;5183650;28;20044;-71
2022/09/16 02:08:52;;;;;;;2.00;0.80;;;14.70;99.90;;;14.94;100.00;100468.28;5184383;28;20073;-70
2022/09/16 02:11:25;;;;;;;0.57;0.57;;;14.80;99.90;;;14.97;100.00;100467.41;5184494;28;20457;-71
2022/09/16 02:14:04;;;;;;;1.25;0.75;;;14.80;99.90;;;15.00;100.00;100477.97;5183405;28;20101;-72
2022/09/16 02:16:42;;;;;;;1.33;0.52;;;14.80;99.90;;;15.00;100.00;100463.09;5182745;28;20064;-72
2022/09/16 02:19:20;;;;;;;0.98;0.73;;;14.80;99.90;;;15.02;100.00;100457.84;5183866;28;20398;-71
2022/09/16 02:21:55;;;;;;;0.95;0.73;;;14.80;99.90;;;15.02;100.00;100465.75;5177038;28;20049;-71
2022/09/16 02:24:29;;;;;;;2.15;0.90;;;14.80;99.90;;;15.02;100.00;100456.13;5184172;28;20502;-71
2022/09/16 02:27:09;;;;;;;2.38;1.02;;;14.90;99.90;;;15.04;100.00;100461.38;5183767;28;20054;-72
2022/09/16 02:29:48;;;;;;;4.57;1.00;;;14.80;99.90;;;15.04;100.00;100461.38;5184291;28;20049;-72
2022/09/16 02:32:26;;;;;;;1.35;0.90;;;14.90;99.90;;;15.03;100.00;100462.25;5199391;28;20073;-71
2022/09/16 02:35:02;;;;;;;0.93;0.82;;;14.80;99.90;;;15.03;100.00;100465.75;5183789;28;20050;-71
2022/09/16 02:37:41;;;;;;;1.23;1.00;;;14.90;99.90;;;15.01;100.00;100463.97;5182403;28;20344;-73
2022/09/16 02:40:18;;;;;;;1.90;0.95;;;14.80;99.90;;;15.01;100.00;100462.22;5184311;28;20083;-70
2022/09/16 02:42:52;;;;;;;2.47;1.30;;;14.80;99.90;;;15.02;100.00;100460.47;5184292;28;20469;-71
2022/09/16 02:45:35;;;;;;;1.77;1.30;;;14.80;99.90;;;15.00;100.00;100468.34;5184312;28;20049;-71
2022/09/16 02:48:19;;;;;;;3.20;1.02;;;14.90;99.90;;;15.01;100.00;100456.97;5183719;28;20528;-71
2022/09/16 02:51:03;;;;;;;2.40;1.13;;;14.80;99.90;;;15.03;100.00;100451.75;5199007;28;20057;-70
2022/09/16 02:53:44;;;;;;;1.42;1.25;;;14.90;99.90;;;15.04;100.00;100457.00;5182773;28;20402;-72
2022/09/16 02:56:24;;;;;;;1.55;1.40;;;14.90;99.90;;;15.06;100.00;100451.75;5183608;28;20038;-72
2022/09/16 02:58:57;;;;;;;2.28;1.33;;;14.90;99.90;;;15.07;100.00;100454.44;5183912;28;20046;-72
2022/09/16 03:01:33;;;;;;;2.20;1.00;;;14.90;99.90;;;15.09;100.00;100457.94;5183798;28;20042;-72
2022/09/16 03:04:05;;;;;;;3.83;1.33;;;14.90;99.90;;;15.11;100.00;100444.81;5183825;28;20034;-73
2022/09/16 03:06:39;;;;;;;2.67;1.27;;;14.90;99.90;;;15.13;100.00;100458.88;5183724;28;20119;-72
2022/09/16 03:09:16;;;;;;;1.95;1.27;;;14.90;99.90;;;15.12;100.00;100447.47;5183703;28;20042;-72
2022/09/16 03:12:17;;;;;;;5.30;1.83;;;14.90;99.90;;;15.08;100.00;100452.69;5184060;28;20069;-71
2022/09/16 03:15:18;;;;;;;2.97;1.38;;;14.90;99.90;;;15.04;100.00;100450.88;5171181;28;20422;-71
2022/09/16 03:18:17;;;;;;;4.90;1.58;;;14.90;99.90;;;14.98;100.00;100449.06;5186002;28;20053;-71
2022/09/16 03:21:00;;;;;;;2.58;1.27;;;14.80;99.90;;;14.93;100.00;100446.41;5186365;28;20054;-73
2022/09/16 03:23:45;;;;;;;1.90;1.25;;;14.80;99.90;;;14.92;100.00;100448.97;5186170;28;20503;-71
2022/09/16 03:26:28;;;;;;;3.13;1.23;;;14.80;99.90;;;14.93;100.00;100453.38;5187411;28;20050;-71
2022/09/16 03:29:16;;;;;;;3.53;1.48;;;14.80;99.90;;;14.93;100.00;100448.13;5186355;28;20053;-72
2022/09/16 03:31:58;;;;;;;2.83;1.02;;;14.80;99.90;;;14.89;100.00;100441.09;5187630;28;20121;-71
2022/09/16 03:34:34;;;;;;;4.25;1.25;;;14.70;99.90;;;14.82;100.00;100444.50;5186674;28;20034;-72
2022/09/16 03:37:09;;;;;;;3.58;1.40;;;14.70;99.90;;;14.79;100.00;100442.72;5186888;28;20050;-71
2022/09/16 03:39:48;;;;;;;4.13;1.40;;;14.70;99.90;;;14.77;100.00;100436.56;5187178;28;20125;-71
2022/09/16 03:42:22;;;;;;;3.92;1.17;;;14.60;99.90;;;14.76;100.00;100437.44;5187328;28;20041;-71
2022/09/16 03:44:56;;;;;;;2.20;1.23;;;14.60;99.90;;;14.75;100.00;100440.06;5187298;28;20038;-71
2022/09/16 03:47:28;;;;;;;2.80;1.20;;;14.60;99.90;;;14.75;100.00;100430.44;5186988;28;20042;-71
2022/09/16 03:50:00;;;;;;;4.63;1.20;;;14.60;99.90;;;14.75;100.00;100427.81;5187548;28;20057;-71
2022/09/16 03:52:32;;;;;;;3.90;1.35;;;14.60;99.90;;;14.75;100.00;100429.56;5186920;28;20048;-71
2022/09/16 03:55:07;;;;;;;3.50;1.20;;;14.60;99.90;;;14.72;100.00;100429.50;5187287;28;20359;-71
2022/09/16 03:57:39;;;;;;;3.47;1.40;;;14.60;99.90;;;14.70;100.00;100432.13;5186629;28;20065;-72
2022/09/16 04:00:14;;;;;;;4.85;1.20;;;14.60;99.90;;;14.71;100.00;100422.50;5186775;28;20041;-71
2022/09/16 04:02:46;;;;;;;1.20;0.80;;;14.60;99.90;;;14.73;100.00;100431.25;5186869;28;20414;-71
2022/09/16 04:05:18;;;;;;;2.35;1.05;;;14.60;99.90;;;14.75;100.00;100430.44;5187021;28;20056;-72
2022/09/16 04:07:51;;;;;;;1.48;0.85;;;14.60;99.90;;;14.77;100.00;100423.44;5186441;28;20375;-71
2022/09/16 04:10:26;;;;;;;1.85;1.10;;;14.60;99.90;;;14.80;100.00;100417.34;5186665;28;20046;-71
2022/09/16 04:12:59;;;;;;;3.83;1.05;;;14.60;99.90;;;14.80;100.00;100423.50;5186692;28;20140;-70
2022/09/16 04:15:31;;;;;;;1.70;0.88;;;14.70;99.90;;;14.80;100.00;100428.75;5186635;28;20148;-71
2022/09/16 04:18:03;;;;;;;1.10;0.95;;;14.60;99.90;;;14.81;100.00;100420.03;5186047;28;20038;-71
2022/09/16 04:20:36;;;;;;;3.28;1.08;;;14.60;99.90;;;14.81;100.00;100417.41;5186508;28;20053;-71
2022/09/16 04:23:09;;;;;;;2.53;1.13;;;14.70;99.90;;;14.84;100.00;100420.03;5186641;28;20048;-71
2022/09/16 04:25:43;;;;;;;1.45;1.02;;;14.70;99.90;;;14.85;100.00;100416.53;5186237;28;20056;-71
2022/09/16 04:28:16;;;;;;;2.38;1.02;;;14.70;99.90;;;14.86;100.00;100420.94;5186035;28;20053;-71
2022/09/16 04:30:48;;;;;;;2.60;1.00;;;14.70;99.90;;;14.87;100.00;100419.22;5186424;28;20069;-71
2022/09/16 04:33:20;;;;;;;3.50;0.95;;;14.70;99.90;;;14.85;100.00;100413.91;5186216;28;20057;-72
2022/09/16 04:35:53;;;;;;;2.78;1.00;;;14.70;99.90;;;14.85;100.00;100413.91;5185651;28;20048;-71
2022/09/16 04:38:25;;;;;;;1.73;1.08;;;14.70;99.90;;;14.84;100.00;100413.91;5185969;28;20430;-70
2022/09/16 04:41:03;;;;;;;1.10;1.00;;;14.70;99.90;;;14.80;100.00;100415.63;5186110;28;20045;-70
2022/09/16 04:43:35;;;;;;;4.47;1.17;;;14.60;99.90;;;14.80;100.00;100417.34;5185148;28;20271;-70
2022/09/16 04:46:08;;;;;;;3.03;1.08;;;14.60;99.90;;;14.80;100.00;100413.00;5186056;28;20503;-71
2022/09/16 04:48:41;;;;;;;4.90;1.83;;;14.60;99.90;;;14.80;100.00;100417.34;5185609;28;20060;-71
2022/09/16 04:51:13;;;;;;;4.07;1.40;;;14.60;99.90;;;14.78;100.00;100414.72;5186102;28;20045;-72
2022/09/16 04:53:46;;;;;;;2.25;1.42;;;14.60;99.90;;;14.74;100.00;100410.31;5186000;28;20038;-71
2022/09/16 04:56:22;;;;;;;3.60;1.38;;;14.60;99.90;;;14.74;100.00;100422.56;5185500;28;20619;-70
2022/09/16 04:58:57;;;;;;;3.22;1.13;;;14.60;99.90;;;14.68;100.00;100418.09;5184685;28;20450;-72
2022/09/16 05:01:31;;;;;;;;;;;14.60;99.90;;;14.62;100.00;100433.78;5186406;28;20046;-71
2022/09/16 05:04:06;;;;;;;2.40;1.13;;;14.50;99.90;;;14.58;100.00;100424.09;5185744;28;19971;-71
2022/09/16 05:06:41;;;;;;;3.83;1.40;;;14.50;99.90;;;14.57;100.00;100419.72;5184981;28;20045;-72
2022/09/16 05:09:13;;;;;;;1.42;1.33;;;14.40;99.90;;;14.55;100.00;100426.69;5185260;28;20038;-71
2022/09/16 05:11:47;;;;;;;2.80;1.25;;;14.40;99.90;;;14.51;100.00;100427.50;5184730;28;20050;-71
2022/09/16 05:14:19;;;;;;;1.75;1.13;;;14.40;99.90;;;14.50;100.00;100431.88;5185626;28;20046;-72
2022/09/16 05:16:51;;;;;;;2.80;1.52;;;14.40;99.90;;;14.50;100.00;100436.22;5183750;28;20046;-72
2022/09/16 05:19:23;;;;;;;2.65;1.42;;;14.40;99.90;;;14.49;100.00;100442.34;5184247;28;20529;-71
2022/09/16 05:21:55;;;;;;;2.40;1.40;;;14.40;99.90;;;14.44;100.00;100437.00;5185295;28;20054;-71
2022/09/16 05:24:28;;;;;;;6.75;1.90;;;14.30;99.90;;;14.43;100.00;100431.75;5200366;28;20056;-71
2022/09/16 05:27:02;;;;;;;4.38;1.75;;;14.30;99.90;;;14.38;100.00;100429.03;5184937;28;20411;-71
2022/09/16 05:29:34;;;;;;;4.63;1.33;;;14.30;99.90;;;14.38;100.00;100429.91;5183977;28;20526;-73
2022/09/16 05:32:06;;;;;;;2.90;1.50;;;14.30;99.90;;;14.43;100.00;100426.50;5185043;28;20454;-70
2022/09/16 05:34:39;;;;;;;1.60;1.00;;;14.30;99.90;;;14.47;100.00;100429.19;5185305;28;20453;-69
2022/09/16 05:37:11;;;;;;;2.35;1.10;;;14.30;99.90;;;14.50;100.00;100428.38;5184596;28;20045;-70
2022/09/16 05:39:43;;;;;;;3.88;1.50;;;14.40;99.90;;;14.49;100.00;100432.72;5184295;28;20064;-69
2022/09/16 05:42:17;;;;;;;3.65;1.30;;;14.40;99.90;;;14.47;100.00;100428.31;5184953;28;20521;-70
2022/09/16 05:44:49;;;;;;;4.38;1.27;;;14.30;99.90;;;14.48;100.00;100427.47;5184886;28;20053;-69
2022/09/16 05:47:22;;;;;;;4.40;0.90;;;14.30;99.90;;;14.49;100.00;100437.09;5183077;28;20049;-70
2022/09/16 05:49:54;;;;;;;2.83;1.23;;;14.40;99.90;;;14.48;100.00;100427.47;5184463;28;20095;-69
2022/09/16 05:52:28;;;;;;;2.80;1.27;;;14.30;99.90;;;14.51;100.00;100435.38;5184540;28;20037;-69
2022/09/16 05:55:00;;;;;;;3.72;1.20;;;14.40;99.90;;;14.53;100.00;100437.13;5184869;28;20048;-71
2022/09/16 05:57:34;;;;;;;1.40;0.93;;;14.40;99.90;;;14.59;100.00;100434.59;5184284;28;20049;-70
2022/09/16 06:00:09;;;;;;;1.95;1.35;;;14.40;99.90;;;14.64;100.00;100432.03;5184516;28;20042;-70
2022/09/16 06:02:42;;;;;;;3.78;1.77;;;14.50;99.90;;;14.66;100.00;100436.44;5184615;28;20046;-69
2022/09/16 06:05:14;;;;;;;2.80;1.33;;;14.50;99.90;;;14.67;100.00;100432.09;5184476;28;20056;-56
2022/09/16 06:07:46;;;;;;;2.88;1.58;;;14.50;99.90;;;14.69;100.00;100434.72;5184672;28;20045;-55
2022/09/16 06:10:18;;;;;;;4.72;1.92;;;14.50;99.90;;;14.72;100.00;100440.00;5184236;28;20048;-57
2022/09/16 06:12:52;;;;;;;2.63;1.23;;;14.50;99.90;;;14.71;100.00;100439.13;5184253;28;20041;-56
2022/09/16 06:15:24;;;;;;;3.88;1.60;;;14.50;99.90;;;14.73;100.00;100434.75;5184176;28;20057;-57
2022/09/16 06:17:57;;;;;;;4.03;1.63;;;14.60;99.90;;;14.74;100.00;100441.81;5184258;28;20422;-56
2022/09/16 06:20:29;;;;;;;5.78;1.73;;;14.60;99.90;;;14.76;100.00;100432.19;5182740;28;20074;-55
2022/09/16 06:23:01;;;;;;;3.10;1.58;;;14.60;99.90;;;14.79;100.00;100437.47;5184223;28;20120;-57
2022/09/16 06:25:33;;;;;;;2.80;1.42;;;14.60;99.90;;;14.82;100.00;100437.50;5184192;28;20045;-57
2022/09/16 06:28:08;;;;;;;5.32;1.75;;;14.60;99.90;;;14.83;100.00;100436.66;5184180;28;20446;-57
2022/09/16 06:30:41;;;;;;;3.63;1.60;;;14.70;99.90;;;14.83;100.00;100428.78;5183960;28;20506;-56
2022/09/16 06:33:15;;;;;;;4.15;1.60;;;14.70;99.90;;;14.88;100.00;100429.72;5183997;28;20073;-55
2022/09/16 06:35:47;;;;;;;4.30;1.42;;;14.70;99.90;;;15.31;100.00;100430.16;5183702;28;20049;-55
2022/09/16 06:38:19;;;;;;;2.65;0.98;;;15.20;99.90;;;15.43;100.00;100432.03;5184087;28;20518;-55
2022/09/16 06:40:51;;;;;;;5.63;1.38;;;15.30;99.90;;;15.41;100.00;100434.66;5183959;28;20050;-55
2022/09/16 06:43:24;;;;;;;2.65;1.08;;;15.30;99.90;;;15.41;100.00;100431.13;5184051;28;20449;-56
2022/09/16 06:45:59;;;;;;;4.25;1.20;;;15.30;99.90;;;15.43;100.00;100427.66;5199420;28;20332;-55
2022/09/16 06:48:33;;;;;;;4.68;1.30;;;15.30;99.90;;;15.46;100.00;100432.06;5183586;28;20041;-56
2022/09/16 06:51:08;;;;;;;3.00;1.60;;;15.30;99.90;;;15.47;100.00;100428.56;5185195;28;20049;-55
2022/09/16 06:53:41;;;;;;;2.90;1.30;;;15.30;99.90;;;15.48;100.00;100435.56;5188075;28;20046;-55
2022/09/16 06:56:16;;;;;;;4.35;1.10;;;15.30;99.90;;;15.37;100.00;100429.34;5187809;28;20357;-56
2022/09/16 06:58:51;;;;;;;4.60;1.40;;;15.20;99.90;;;15.22;100.00;100437.06;5187904;28;20104;-56
2022/09/16 07:01:27;;;;;;;3.97;0.93;;;15.10;99.90;;;15.13;100.00;100433.50;5187974;28;20050;-55
2022/09/16 07:04:02;;;;;;;5.35;1.25;;;15.00;99.90;;;15.06;100.00;100430.75;5187869;28;20526;-54
2022/09/16 07:06:34;;;;;;;3.50;1.20;;;14.90;99.90;;;15.01;100.00;100437.72;5187693;28;20046;-55
2022/09/16 07:09:07;;;;;;;3.92;0.90;;;14.90;99.90;;;14.99;100.00;100436.81;5187774;28;20074;-56
2022/09/16 07:11:40;;;;;;;2.90;1.13;;;14.90;99.90;;;14.99;100.00;100444.69;5187602;28;20049;-54
2022/09/16 07:14:14;;;;;;;6.15;1.08;;;14.90;99.90;;;14.98;100.00;100440.31;5187754;28;20107;-55
2022/09/16 07:16:46;;;;;;;2.78;0.90;;;14.80;99.90;;;14.98;100.00;100442.94;5188097;28;20046;-55
2022/09/16 07:19:19;;;;;;;2.38;0.95;;;14.90;99.90;;;15.01;100.00;100442.97;5187376;28;20547;-55
2022/09/16 07:21:51;;;;;;;4.20;0.88;;;14.90;99.90;;;15.06;100.00;100441.25;5187630;28;20041;-55
2022/09/16 07:24:23;;;;;;;3.05;0.82;;;14.90;99.90;;;15.15;100.00;100436.13;5187512;28;20418;-56
2022/09/16 07:26:55;;;;;;;6.55;1.20;;;14.90;99.90;;;15.26;100.00;100452.88;5187486;28;20046;-56
2022/09/16 07:29:29;;;;;;;1.67;0.90;;;15.00;99.90;;;15.46;100.00;100450.47;5187435;28;20045;-56
2022/09/16 07:32:01;;;;;;;3.25;0.90;;;15.20;99.90;;;15.55;100.00;100454.91;5187664;28;20065;-56
2022/09/16 07:34:33;;;;;;;3.65;0.82;;;15.30;99.90;;;15.54;100.00;100451.41;5202805;28;20053;-56
2022/09/16 07:37:05;;;;;;;4.47;1.00;;;15.30;99.90;;;15.51;100.00;100453.09;5187243;28;20060;-55
2022/09/16 07:39:38;;;;;;;3.10;0.90;;;15.30;99.90;;;15.51;100.00;100451.34;5187063;28;20048;-57
2022/09/16 07:42:09;;;;;;;1.98;0.73;;;15.30;99.90;;;15.55;100.00;100455.78;5185836;28;20112;-54
2022/09/16 07:44:43;;;;;;;1.58;0.90;;;15.40;99.90;;;15.60;100.00;100461.97;5187151;28;20042;-56
2022/09/16 07:47:15;;;;;;;3.17;0.68;;;15.40;99.90;;;15.72;100.00;100467.38;5187319;28;20406;-55
2022/09/16 07:49:47;;;;;;;4.45;0.98;;;15.50;99.90;;;15.93;100.00;100466.66;5186733;28;20104;-55
2022/09/16 07:52:19;;;;;;;2.63;1.20;;;15.60;99.90;;;16.16;100.00;100463.31;5186966;28;20053;-55
2022/09/16 07:54:52;;;;;;;3.60;0.80;;;15.80;99.90;;;16.42;100.00;100460.84;5187100;28;20049;-55
2022/09/16 07:57:24;;;;;;;4.57;0.80;;;16.00;99.90;;;16.51;100.00;100459.16;5187105;28;20050;-55
2022/09/16 07:59:58;;;;;;;2.53;0.90;;;16.10;99.90;;;16.47;100.00;100460.00;5186871;28;20048;-55
2022/09/16 08:02:30;;;;;;;5.07;1.10;;;16.10;99.90;;;16.49;100.00;100458.25;5186143;28;20130;-55
2022/09/16 08:05:02;;;;;;;2.15;0.85;;;16.10;99.90;;;16.51;100.00;100466.16;5186776;28;20046;-55
2022/09/16 08:07:34;;;;;;;3.17;1.00;;;16.10;99.90;;;16.59;100.00;100471.47;5186696;28;20530;-55
2022/09/16 08:10:07;;;;;;;4.70;1.00;;;16.20;99.90;;;16.83;100.00;100469.00;5186924;28;20644;-56
2022/09/16 08:12:39;;;;;;;2.83;0.82;;;16.30;99.90;;;16.93;100.00;100468.13;5209280;22;20421;-54
2022/09/16 08:15:13;;;;;;;2.65;0.90;;;16.50;99.90;;;17.04;100.00;100474.31;5206490;28;20045;-52
2022/09/16 08:17:45;;;;;;;2.58;0.80;;;16.50;99.90;;;17.09;99.64;100475.22;5206222;28;20059;-52
2022/09/16 08:20:17;;;;;;;3.35;1.10;;;16.60;99.90;;;17.02;99.43;100480.47;5197566;28;20429;-52
2022/09/16 08:22:50;;;;;;;3.00;0.60;;;16.60;99.90;;;16.93;99.34;100486.56;5186219;28;20502;-52
2022/09/16 08:25:25;;;;;;;1.98;0.75;;;16.60;99.90;;;16.81;99.84;100489.13;5185928;28;20409;-51
2022/09/16 08:27:57;;;;;;;4.78;0.88;;;16.50;99.90;;;16.68;100.00;100488.16;5186356;28;20044;-53
2022/09/16 08:30:31;;;;;;;4.38;0.73;;;16.40;99.90;;;16.62;100.00;100496.03;5186410;28;20045;-52
2022/09/16 08:33:02;;;;;;;2.60;0.80;;;16.30;99.90;;;16.59;100.00;100489.88;5186373;28;20060;-52
2022/09/16 08:35:35;;;;;;;1.23;0.63;;;16.30;99.90;;;16.57;100.00;100496.91;5186703;28;20502;-51
2022/09/16 08:38:07;;;;;;;4.25;0.80;;;16.30;99.90;;;16.51;100.00;100485.47;5186156;28;20053;-52
2022/09/16 08:40:45;;;;;;;3.95;0.80;;;16.30;99.90;;;16.42;100.00;100480.13;5186097;28;20037;-52
2022/09/16 08:43:23;;;;;;;1.67;0.90;;;16.20;99.90;;;16.35;100.00;100480.09;5185808;28;20446;-52
2022/09/16 08:46:08;;;;;;;3.28;0.85;;;16.10;99.90;;;16.29;100.00;100486.19;5186181;28;20049;-52
2022/09/16 08:48:49;;;;;;;6.10;1.40;;;16.00;99.90;;;16.47;100.00;100488.06;5186317;28;20119;-53
2022/09/16 08:51:23;;;;;;;1.73;1.40;;;16.10;99.90;;;16.83;100.00;100497.06;5185891;28;20045;-52
2022/09/16 08:54:00;;;;;;;3.42;1.02;;;16.30;99.90;;;17.15;99.11;100497.16;5186986;28;20046;-52
2022/09/16 08:56:35;;;;;;;3.65;1.40;;;16.60;99.90;;;17.23;98.99;100503.34;5186841;28;20538;-52
2022/09/16 08:59:12;;;;;;;;;;;16.70;99.90;;;17.22;98.48;100496.34;5185999;28;20103;-52
2022/09/16 09:01:52;;;;;;;2.47;0.98;;;16.80;99.90;;;17.23;97.97;100495.47;5185476;28;19922;-52
2022/09/16 09:04:24;;;;;;;3.10;0.98;;;16.80;99.90;;;17.19;97.31;100494.56;5186816;28;20388;-52
2022/09/16 09:07:08;;;;;;;1.85;1.05;;;16.80;99.90;;;17.15;97.36;100505.97;5185439;28;20057;-52
2022/09/16 09:09:57;;;;;;;1.98;0.90;;;16.80;99.90;;;17.21;97.99;100492.78;5186591;28;20046;-52
2022/09/16 09:12:40;;;;;;;1.33;0.63;;;16.80;99.90;;;17.48;97.99;100505.19;5186652;28;20046;-52
2022/09/16 09:15:33;;;;;;;2.97;0.75;;;17.00;99.90;;;17.84;94.04;100500.84;5184731;28;20041;-52
2022/09/16 09:18:26;;;;;;;2.03;0.77;;;17.30;99.90;;;18.06;92.13;100497.34;5185509;28;20050;-52
2022/09/16 09:21:14;;;;;;;1.48;0.70;;;17.50;99.60;;;18.27;90.58;100496.44;5185373;28;20045;-52
2022/09/16 09:24:09;;;;;;;2.65;0.85;;;17.70;99.10;;;18.29;89.04;100501.72;5185427;28;20042;-52
2022/09/16 09:26:48;;;;;;;1.42;0.60;;;17.80;98.40;;;18.34;89.53;100497.31;5185473;28;20045;-54
2022/09/16 09:29:41;;;;;;;2.47;0.63;;;17.80;98.80;;;18.39;88.61;100500.84;5185215;28;20068;-51
2022/09/16 09:32:26;;;;;;;1.77;0.82;;;17.90;98.00;;;18.34;87.23;100500.84;5185364;28;20514;-52
2022/09/16 09:35:29;;;;;;;1.10;0.65;;;17.90;97.50;;;18.61;87.12;100497.25;5185347;28;20076;-52
2022/09/16 09:38:48;;;;;;;1.77;0.75;;;18.10;97.50;;;19.18;86.60;100491.78;5185259;28;20407;-52
2022/09/16 09:41:28;;;;;;;2.25;0.52;;;18.50;97.50;;;19.71;85.34;100486.19;5142260;28;20153;-52
2022/09/16 09:44:31;;;;;;;2.35;0.60;;;19.00;97.00;;;20.23;83.80;100485.75;5142080;28;20050;-51
2022/09/16 09:47:08;;;;;;;2.40;0.52;;;19.40;96.50;;;20.62;81.70;100486.28;5179748;28;20073;-53
2022/09/16 09:49:46;;;;;;;2.05;0.50;;;19.80;95.60;;;20.79;80.44;100483.41;5184790;28;20046;-52
2022/09/16 09:52:28;;;;;;;1.60;0.43;;;20.00;94.80;;;20.90;78.43;100485.94;5184990;28;20050;-52
2022/09/16 09:55:14;;;;;;;3.40;0.52;;;20.20;93.80;;;20.56;74.62;100489.84;5184944;28;20046;-51
2022/09/16 09:58:01;;;;;;;1.33;0.50;;;20.10;91.60;;;20.16;75.37;100473.47;5184988;28;20045;-52
2022/09/16 10:00:33;;;;;;;1.90;0.60;;;19.80;91.40;;;19.85;77.03;100485.22;5184681;28;20042;-52
2022/09/16 10:03:10;;;;;;;1.33;0.57;;;19.50;92.00;;;19.59;77.89;100486.28;5184594;28;20084;-52
2022/09/16 10:05:45;;;;;;;1.65;0.73;;;19.30;92.20;;;19.26;78.27;100484.69;5185064;28;20053;-53
2022/09/16 10:08:26;;;;;;;2.72;0.80;;;18.90;92.30;;;18.93;79.45;100483.09;5199867;28;20395;-51
2022/09/16 10:11:01;;;;;;;2.17;0.63;;;18.70;92.70;;;18.69;79.28;100481.41;5184524;28;20472;-52
2022/09/16 10:13:33;;;;;;;7.10;0.75;;;18.40;92.70;;;18.48;79.98;100484.97;5184920;28;20541;-53
2022/09/16 10:16:16;;;;;;;5.50;1.27;;;18.20;93.00;;;18.34;81.88;100477.09;5184649;28;20073;-51
2022/09/16 10:18:58;;;;;;;3.72;1.02;;;18.00;93.70;;;18.27;82.92;100487.66;5183164;28;20065;-51
2022/09/16 10:21:46;;;;;;;2.92;0.90;;;18.00;94.30;;;18.15;83.25;100481.50;5184549;28;20042;-51
2022/09/16 10:24:36;;;;;;;2.75;0.85;;;17.90;94.40;;;18.23;83.33;100478.84;5184389;28;20060;-52
2022/09/16 10:27:24;;;;;;;2.15;0.88;;;17.90;94.60;;;18.48;82.68;100490.25;5184703;28;20050;-51
2022/09/16 10:30:13;;;;;;;3.75;0.93;;;18.00;94.50;;;18.87;82.36;100483.13;5184246;28;20074;-52
2022/09/16 10:32:50;;;;;;;2.85;0.88;;;18.30;94.50;;;19.22;81.46;100475.91;5184387;28;20107;-55
2022/09/16 10:35:25;;;;;;;2.08;0.70;;;18.60;94.50;;;19.50;80.56;100479.28;5184524;28;20042;-53
2022/09/16 10:38:01;;;;;;;2.20;0.80;;;18.80;93.90;;;19.68;78.14;100490.63;5184311;28;20508;-56
2022/09/16 10:40:36;;;;;;;2.72;0.80;;;19.00;92.80;;;19.92;78.07;100478.97;5182948;28;20156;-53
2022/09/16 10:43:15;;;;;;;2.45;0.73;;;19.30;92.70;;;20.02;77.35;100475.38;5184175;28;20050;-56
2022/09/16 10:45:49;;;;;;;2.92;0.60;;;19.40;92.30;;;19.94;75.33;100477.19;5183818;28;20052;-54
2022/09/16 10:48:26;;;;;;;0.60;0.50;;;19.40;91.30;;;19.89;75.29;100473.72;5183921;28;20100;-54